Asbestos, Canada
Current Conditions -  °F | °C
As of 1:00 AM on Tuesday 21 Oct 2014 (Local Time) from CYSC Reporting Station
Overcast Overcast  
Wind Chill: 41°   Ceiling: 4500
Heat Index: 41°   Visibility: 9mi
Dew Point: 37°   Wind: 3mph
Humidity: 87%   Direction: 100°E
Pressure: 29.96"   Gusts: NA
Location:  45.78°N, 71.93°W
Report Text: CYSC 210500Z AUTO 10003KT 9SM OVC045 05/03 A2996 RMK SLP153
Loading
Personal Weather Stations






























Interactive Weather Map
Tropical Storm Tracking
New forecast layout! Learn more

10-Day Weather Forecast

Advertisements
Track Severe Weather on mobile